Time;durP1;ratioP1;P1;durP2;ratioP2;P2;SDS_P1;SDS_P2;PMS_P1;PMS_P2;Temp;Humidity;BMP_temperature;BMP_pressure;BME280_temperature;BME280_humidity;BME280_pressure;Samples;Min_cycle;Max_cycle;Signal;HPM_P1;HPM_P2
2023/10/18 00:00:03;;;;;;;0.70;0.70;;;;;;;;;;4997382;28;20212;-80
2023/10/18 00:02:30;;;;;;;0.70;0.70;;;;;;;;;;4999102;28;20181;-79
2023/10/18 00:04:57;;;;;;;0.70;0.70;;;;;;;;;;5019875;28;20189;-78
2023/10/18 00:07:24;;;;;;;0.80;0.80;;;;;;;;;;5020702;28;20166;-77
2023/10/18 00:09:50;;;;;;;0.80;0.80;;;;;;;;;;5020748;28;20185;-78
2023/10/18 00:12:16;;;;;;;0.90;0.90;;;;;;;;;;5020867;28;20268;-76
2023/10/18 00:14:45;;;;;;;0.80;0.80;;;;;;;;;;5020600;28;20184;-79
2023/10/18 00:17:14;;;;;;;0.77;0.77;;;;;;;;;;5016309;28;20181;-81
2023/10/18 00:19:40;;;;;;;0.70;0.70;;;;;;;;;;5009933;28;20224;-81
2023/10/18 00:22:09;;;;;;;0.80;0.80;;;;;;;;;;5007966;28;20193;-81
2023/10/18 00:24:35;;;;;;;0.80;0.80;;;;;;;;;;5007643;28;20245;-80
2023/10/18 00:27:03;;;;;;;0.73;0.73;;;;;;;;;;5007575;28;20257;-80
2023/10/18 00:29:29;;;;;;;0.80;0.80;;;;;;;;;;5007022;28;20181;-80
2023/10/18 00:31:55;;;;;;;0.80;0.80;;;;;;;;;;5008092;28;20309;-81
2023/10/18 00:34:21;;;;;;;0.80;0.80;;;;;;;;;;5006745;28;20173;-80
2023/10/18 00:36:47;;;;;;;0.80;0.80;;;;;;;;;;5008252;28;20616;-81
2023/10/18 00:39:21;;;;;;;0.80;0.80;;;;;;;;;;5009558;28;20714;-81
2023/10/18 00:41:52;;;;;;;0.80;0.80;;;;;;;;;;5008850;28;20200;-81
2023/10/18 00:44:21;;;;;;;0.90;0.90;;;;;;;;;;5009529;28;20284;-82
2023/10/18 00:46:47;;;;;;;0.80;0.80;;;;;;;;;;5009564;28;20193;-81
2023/10/18 00:49:16;;;;;;;0.90;0.90;;;;;;;;;;5013973;28;20389;-79
2023/10/18 00:51:46;;;;;;;0.80;0.80;;;;;;;;;;5018393;28;20200;-77
2023/10/18 00:54:12;;;;;;;0.80;0.80;;;;;;;;;;5016797;28;20193;-79
2023/10/18 00:56:46;;;;;;;0.80;0.80;;;;;;;;;;5017512;28;20265;-77
2023/10/18 00:59:21;;;;;;;0.93;0.93;;;;;;;;;;5015390;28;20180;-81
2023/10/18 01:01:53;;;;;;;0.90;0.90;;;;;;;;;;5010310;28;20173;-81
2023/10/18 01:04:24;;;;;;;0.70;0.70;;;;;;;;;;5008528;28;20192;-81
2023/10/18 01:06:50;;;;;;;0.80;0.80;;;;;;;;;;5009085;28;20197;-80
2023/10/18 01:09:16;;;;;;;0.80;0.80;;;;;;;;;;5008991;28;20549;-81
2023/10/18 01:11:46;;;;;;;0.80;0.80;;;;;;;;;;5007525;28;20232;-79
2023/10/18 01:14:16;;;;;;;0.80;0.80;;;;;;;;;;5006418;28;20173;-78
2023/10/18 01:16:44;;;;;;;0.80;0.80;;;;;;;;;;5006611;28;20189;-82
2023/10/18 01:19:11;;;;;;;0.73;0.73;;;;;;;;;;5006191;28;20165;-80
2023/10/18 01:21:37;;;;;;;0.80;0.80;;;;;;;;;;5005321;28;20548;-80
2023/10/18 01:24:13;;;;;;;0.90;0.90;;;;;;;;;;5005337;28;20173;-78
2023/10/18 01:26:40;;;;;;;0.80;0.80;;;;;;;;;;5004061;28;20185;-78
2023/10/18 01:29:09;;;;;;;0.80;0.80;;;;;;;;;;5004167;28;20173;-78
2023/10/18 01:31:36;;;;;;;0.80;0.80;;;;;;;;;;5003645;28;20181;-81
2023/10/18 01:34:05;;;;;;;0.70;0.70;;;;;;;;;;5003973;28;20227;-78
2023/10/18 01:36:32;;;;;;;0.80;0.80;;;;;;;;;;5003577;28;20223;-77
2023/10/18 01:38:58;;;;;;;0.80;0.80;;;;;;;;;;5002562;28;20193;-80
2023/10/18 01:41:34;;;;;;;0.70;0.70;;;;;;;;;;5000051;28;20292;-79
2023/10/18 01:44:06;;;;;;;0.80;0.80;;;;;;;;;;5003001;28;20180;-78
2023/10/18 01:46:45;;;;;;;0.90;0.90;;;;;;;;;;5004330;28;20217;-80
2023/10/18 01:49:16;;;;;;;0.80;0.80;;;;;;;;;;5004334;28;20709;-78
2023/10/18 01:51:44;;;;;;;0.77;0.77;;;;;;;;;;5004562;28;20288;-79
2023/10/18 01:54:15;;;;;;;0.83;0.83;;;;;;;;;;5003959;28;20173;-79
2023/10/18 01:56:41;;;;;;;0.80;0.80;;;;;;;;;;5003884;28;20189;-79
2023/10/18 01:59:08;;;;;;;0.80;0.80;;;;;;;;;;5004023;28;20189;-78
2023/10/18 02:01:34;;;;;;;0.80;0.80;;;;;;;;;;5003531;28;20181;-78
2023/10/18 02:04:02;;;;;;;0.87;0.87;;;;;;;;;;5003474;28;20181;-78
2023/10/18 02:06:28;;;;;;;0.70;0.70;;;;;;;;;;5014253;28;20243;-79
2023/10/18 02:08:54;;;;;;;0.70;0.70;;;;;;;;;;5022139;28;20263;-79
2023/10/18 02:11:20;;;;;;;0.90;0.90;;;;;;;;;;5023532;28;20188;-78
2023/10/18 02:13:46;;;;;;;0.87;0.87;;;;;;;;;;5022866;28;20193;-78
2023/10/18 02:16:16;;;;;;;0.80;0.80;;;;;;;;;;5023039;28;20685;-78
2023/10/18 02:18:42;;;;;;;0.80;0.80;;;;;;;;;;5023716;28;20172;-79
2023/10/18 02:21:08;;;;;;;0.90;0.90;;;;;;;;;;5023228;28;20231;-80
2023/10/18 02:23:37;;;;;;;0.90;0.90;;;;;;;;;;5021334;28;20180;-78
2023/10/18 02:26:53;;;;;;;0.80;0.80;;;;;;;;;;5021129;28;20219;-78
2023/10/18 02:28:52;;;;;;;0.77;0.77;;;;;;;;;;5021705;28;20711;-78
2023/10/18 02:31:21;;;;;;;0.80;0.80;;;;;;;;;;5023355;28;20181;-77
2023/10/18 02:33:53;;;;;;;0.80;0.80;;;;;;;;;;5021477;28;20218;-81
2023/10/18 02:36:24;;;;;;;0.90;0.90;;;;;;;;;;5022381;28;20574;-80
2023/10/18 02:38:50;;;;;;;0.60;0.60;;;;;;;;;;5022907;28;20172;-81
2023/10/18 02:41:26;;;;;;;0.80;0.80;;;;;;;;;;5022164;28;20323;-81
2023/10/18 02:43:52;;;;;;;0.70;0.70;;;;;;;;;;5022899;28;20188;-80
2023/10/18 02:46:23;;;;;;;0.80;0.80;;;;;;;;;;5021555;28;20212;-79
2023/10/18 02:48:51;;;;;;;0.90;0.90;;;;;;;;;;5022445;28;20173;-78
2023/10/18 02:51:22;;;;;;;0.90;0.90;;;;;;;;;;5022889;28;20243;-81
2023/10/18 02:53:48;;;;;;;0.90;0.90;;;;;;;;;;5020409;28;20177;-81
2023/10/18 02:56:17;;;;;;;0.80;0.80;;;;;;;;;;5020048;28;20219;-81
2023/10/18 02:58:49;;;;;;;0.80;0.80;;;;;;;;;;5021609;28;20686;-79
2023/10/18 03:01:18;;;;;;;0.70;0.70;;;;;;;;;;5021286;28;20195;-81
2023/10/18 03:03:46;;;;;;;0.77;0.77;;;;;;;;;;5021282;28;20206;-80
2023/10/18 03:06:16;;;;;;;0.70;0.70;;;;;;;;;;5021661;28;20184;-81
2023/10/18 03:08:42;;;;;;;0.80;0.80;;;;;;;;;;5022339;28;20248;-81
2023/10/18 03:11:11;;;;;;;0.80;0.80;;;;;;;;;;5022537;28;20196;-80
2023/10/18 03:13:37;;;;;;;0.80;0.80;;;;;;;;;;5033770;28;20223;-78
2023/10/18 03:16:15;;;;;;;0.83;0.83;;;;;;;;;;5041278;28;20180;-77
2023/10/18 03:18:43;;;;;;;0.80;0.80;;;;;;;;;;5028897;28;20211;-80
2023/10/18 03:21:20;;;;;;;0.80;0.80;;;;;;;;;;5017089;28;20176;-81
2023/10/18 03:23:46;;;;;;;0.80;0.80;;;;;;;;;;5017459;28;20165;-78
2023/10/18 03:26:12;;;;;;;0.80;0.80;;;;;;;;;;5017375;28;20295;-80
2023/10/18 03:28:41;;;;;;;0.70;0.70;;;;;;;;;;5017199;28;20231;-79
2023/10/18 03:31:27;;;;;;;0.80;0.80;;;;;;;;;;5022739;28;20169;-81
2023/10/18 03:33:55;;;;;;;0.90;0.90;;;;;;;;;;5030382;28;20614;-80
2023/10/18 03:36:25;;;;;;;0.80;0.80;;;;;;;;;;5030082;28;20204;-81
2023/10/18 03:38:54;;;;;;;0.90;0.90;;;;;;;;;;5030905;28;20168;-80
2023/10/18 03:41:22;;;;;;;0.80;0.80;;;;;;;;;;5030185;28;20176;-81
2023/10/18 03:43:49;;;;;;;0.90;0.90;;;;;;;;;;5030785;28;20187;-82
2023/10/18 03:46:19;;;;;;;0.80;0.80;;;;;;;;;;5029141;28;20200;-78
2023/10/18 03:48:47;;;;;;;0.83;0.83;;;;;;;;;;5017732;28;20176;-77
2023/10/18 03:51:20;;;;;;;0.80;0.80;;;;;;;;;;5019605;28;20165;-77
2023/10/18 03:53:51;;;;;;;0.87;0.87;;;;;;;;;;5019515;28;20212;-78
2023/10/18 03:56:19;;;;;;;0.70;0.70;;;;;;;;;;5030567;28;20216;-81
2023/10/18 03:58:49;;;;;;;0.80;0.80;;;;;;;;;;5027674;28;20173;-78
2023/10/18 04:01:21;;;;;;;0.73;0.73;;;;;;;;;;5015978;28;20176;-77
2023/10/18 04:03:47;;;;;;;0.80;0.80;;;;;;;;;;5014406;28;20173;-79
2023/10/18 04:06:23;;;;;;;0.90;0.90;;;;;;;;;;5010167;28;20228;-79
2023/10/18 04:08:50;;;;;;;0.80;0.80;;;;;;;;;;5010018;28;20189;-80
2023/10/18 04:11:24;;;;;;;0.80;0.80;;;;;;;;;;5007967;28;20173;-80
2023/10/18 04:13:52;;;;;;;0.90;0.90;;;;;;;;;;5008126;28;20228;-77
2023/10/18 04:16:18;;;;;;;0.90;0.90;;;;;;;;;;5006947;28;20197;-78
2023/10/18 04:18:45;;;;;;;0.77;0.77;;;;;;;;;;5006457;28;20177;-79
2023/10/18 04:21:25;;;;;;;0.90;0.90;;;;;;;;;;5005887;28;20313;-79
2023/10/18 04:23:54;;;;;;;0.80;0.80;;;;;;;;;;5005780;28;20173;-77
2023/10/18 04:26:21;;;;;;;0.90;0.90;;;;;;;;;;5006042;28;20197;-78
2023/10/18 04:28:48;;;;;;;0.70;0.70;;;;;;;;;;5005047;28;20185;-77
2023/10/18 04:31:14;;;;;;;0.90;0.90;;;;;;;;;;5003939;28;20200;-78
2023/10/18 04:33:41;;;;;;;0.80;0.80;;;;;;;;;;5002539;28;20658;-77
2023/10/18 04:36:11;;;;;;;0.80;0.80;;;;;;;;;;5002208;28;20189;-76
2023/10/18 04:38:42;;;;;;;0.80;0.80;;;;;;;;;;5002594;28;20231;-77
2023/10/18 04:41:10;;;;;;;0.90;0.90;;;;;;;;;;5001386;28;20181;-78
2023/10/18 04:43:36;;;;;;;0.83;0.83;;;;;;;;;;5002743;28;20822;-77
2023/10/18 04:54:00;;;;;;;0.67;0.67;;;;;;;;;;5002979;28;20220;-77
2023/10/18 04:56:31;;;;;;;0.80;0.80;;;;;;;;;;5001798;28;20267;-77
2023/10/18 04:58:59;;;;;;;0.80;0.80;;;;;;;;;;5005254;28;20220;-78
2023/10/18 05:01:32;;;;;;;0.90;0.90;;;;;;;;;;5004779;28;20196;-78
2023/10/18 05:04:00;;;;;;;0.80;0.80;;;;;;;;;;5004095;28;20237;-77
2023/10/18 05:06:29;;;;;;;0.80;0.80;;;;;;;;;;5003642;28;20197;-78
2023/10/18 05:08:56;;;;;;;0.80;0.80;;;;;;;;;;5006310;28;20220;-79
2023/10/18 05:11:25;;;;;;;0.90;0.90;;;;;;;;;;5004905;28;20184;-78
2023/10/18 05:13:56;;;;;;;0.90;0.90;;;;;;;;;;5006888;28;20280;-78
2023/10/18 05:16:26;;;;;;;0.80;0.80;;;;;;;;;;5002389;28;20205;-79
2023/10/18 05:18:52;;;;;;;0.80;0.80;;;;;;;;;;5002343;28;20184;-78
2023/10/18 05:21:20;;;;;;;0.77;0.77;;;;;;;;;;5001497;28;20543;-78
2023/10/18 05:23:47;;;;;;;0.80;0.80;;;;;;;;;;5001155;28;20169;-78
2023/10/18 05:26:18;;;;;;;0.80;0.80;;;;;;;;;;5000504;28;20189;-78
2023/10/18 05:29:00;;;;;;;0.80;0.80;;;;;;;;;;5009752;28;20183;-78
2023/10/18 05:37:12;;;;;;;0.90;0.90;;;;;;;;;;5020036;28;20204;-79
2023/10/18 05:41:59;;;;;;;0.80;0.80;;;;;;;;;;5018192;28;20207;-79
2023/10/18 05:44:27;;;;;;;0.80;0.80;;;;;;;;;;5018802;28;20183;-78
2023/10/18 05:46:53;;;;;;;0.80;0.80;;;;;;;;;;5019946;28;20179;-78
2023/10/18 05:49:23;;;;;;;0.80;0.80;;;;;;;;;;5018306;28;20235;-78
2023/10/18 05:52:16;;;;;;;0.80;0.80;;;;;;;;;;5019099;28;20207;-78
2023/10/18 05:54:43;;;;;;;0.90;0.90;;;;;;;;;;5020131;28;20256;-78
2023/10/18 05:57:16;;;;;;;0.80;0.80;;;;;;;;;;5020440;28;20255;-79
2023/10/18 05:59:46;;;;;;;0.87;0.87;;;;;;;;;;5018749;28;20237;-78
2023/10/18 06:02:23;;;;;;;0.90;0.90;;;;;;;;;;5017264;28;20181;-78
2023/10/18 06:04:51;;;;;;;0.80;0.80;;;;;;;;;;5017285;28;20211;-79
2023/10/18 06:07:22;;;;;;;0.90;0.90;;;;;;;;;;5014519;28;20471;-78
2023/10/18 06:12:22;;;;;;;0.80;0.80;;;;;;;;;;5008123;28;20223;-80
2023/10/18 06:14:51;;;;;;;0.90;0.90;;;;;;;;;;5010697;28;20220;-79
2023/10/18 06:17:40;;;;;;;0.90;0.90;;;;;;;;;;5005547;28;20184;-78
2023/10/18 06:20:24;;;;;;;0.80;0.80;;;;;;;;;;5002572;28;20181;-80
2023/10/18 06:22:53;;;;;;;0.80;0.80;;;;;;;;;;5007376;28;20181;-80
2023/10/18 06:25:25;;;;;;;0.90;0.90;;;;;;;;;;5006861;28;20681;-79
2023/10/18 06:27:53;;;;;;;0.90;0.90;;;;;;;;;;5008820;28;20192;-79
2023/10/18 06:30:24;;;;;;;0.80;0.80;;;;;;;;;;5006777;28;20181;-79
2023/10/18 06:32:51;;;;;;;0.80;0.80;;;;;;;;;;5004234;28;20377;-81
2023/10/18 06:35:26;;;;;;;0.80;0.80;;;;;;;;;;5015218;28;20207;-79
2023/10/18 06:37:52;;;;;;;0.80;0.80;;;;;;;;;;5016906;28;20625;-80
2023/10/18 06:41:03;;;;;;;0.80;0.80;;;;;;;;;;5016331;28;20661;-80
2023/10/18 06:43:04;;;;;;;0.70;0.70;;;;;;;;;;5021323;28;20187;-79
2023/10/18 06:45:33;;;;;;;0.80;0.80;;;;;;;;;;5020512;28;20260;-78
2023/10/18 06:48:02;;;;;;;0.73;0.73;;;;;;;;;;5014756;28;20181;-78
2023/10/18 06:50:28;;;;;;;0.80;0.80;;;;;;;;;;5014556;28;20235;-79
2023/10/18 06:52:55;;;;;;;0.70;0.70;;;;;;;;;;5013571;28;20215;-80
2023/10/18 06:55:35;;;;;;;0.70;0.70;;;;;;;;;;5013388;28;20689;-78
2023/10/18 06:58:11;;;;;;;0.60;0.60;;;;;;;;;;5015455;28;20315;-79
2023/10/18 07:00:43;;;;;;;0.80;0.80;;;;;;;;;;5014734;28;20661;-78
2023/10/18 07:03:09;;;;;;;0.70;0.70;;;;;;;;;;5016055;28;20180;-78
2023/10/18 07:05:38;;;;;;;0.70;0.70;;;;;;;;;;5015401;28;20211;-78
2023/10/18 07:08:04;;;;;;;0.90;0.90;;;;;;;;;;5015954;28;20196;-78
2023/10/18 07:10:53;;;;;;;0.80;0.80;;;;;;;;;;5015266;28;20527;-78
2023/10/18 07:13:16;;;;;;;0.60;0.60;;;;;;;;;;5015135;28;20290;-78
2023/10/18 07:15:42;;;;;;;0.77;0.77;;;;;;;;;;5015470;28;20689;-78
2023/10/18 07:18:13;;;;;;;0.80;0.80;;;;;;;;;;5015225;28;20185;-78
2023/10/18 07:20:41;;;;;;;0.70;0.70;;;;;;;;;;5014254;28;20303;-78
2023/10/18 07:23:17;;;;;;;0.60;0.60;;;;;;;;;;5014269;28;20183;-77
2023/10/18 07:25:43;;;;;;;0.60;0.60;;;;;;;;;;5013530;28;20196;-78
2023/10/18 07:28:09;;;;;;;0.67;0.67;;;;;;;;;;5012878;28;20200;-77
2023/10/18 07:30:43;;;;;;;0.70;0.70;;;;;;;;;;5013860;28;20200;-78
2023/10/18 07:33:10;;;;;;;0.70;0.70;;;;;;;;;;5015493;28;20658;-78
2023/10/18 07:35:39;;;;;;;0.60;0.60;;;;;;;;;;5014499;28;20669;-78
2023/10/18 07:38:05;;;;;;;0.60;0.60;;;;;;;;;;5013996;28;20227;-79
2023/10/18 07:40:36;;;;;;;0.60;0.60;;;;;;;;;;5015743;28;20177;-78
2023/10/18 07:43:12;;;;;;;0.63;0.63;;;;;;;;;;5014541;28;20176;-77
2023/10/18 07:45:38;;;;;;;0.70;0.70;;;;;;;;;;5013501;28;20193;-78
2023/10/18 07:48:05;;;;;;;0.60;0.60;;;;;;;;;;5014657;28;20539;-78
2023/10/18 07:53:06;;;;;;;0.60;0.60;;;;;;;;;;5015150;28;20238;-78
2023/10/18 07:55:41;;;;;;;0.60;0.60;;;;;;;;;;5015395;28;20200;-78
2023/10/18 07:58:32;;;;;;;0.60;0.60;;;;;;;;;;5017146;28;20172;-79
2023/10/18 08:03:29;;;;;;;0.60;0.60;;;;;;;;;;5019587;28;20183;-80
2023/10/18 08:05:56;;;;;;;0.60;0.60;;;;;;;;;;5018089;28;20260;-80
2023/10/18 08:08:25;;;;;;;0.60;0.60;;;;;;;;;;5018835;28;20185;-81
2023/10/18 08:10:54;;;;;;;0.50;0.50;;;;;;;;;;5017847;28;20172;-79
2023/10/18 08:13:26;;;;;;;0.50;0.50;;;;;;;;;;5017533;28;20236;-78
2023/10/18 08:15:53;;;;;;;0.50;0.50;;;;;;;;;;5017179;28;20196;-78
2023/10/18 08:18:21;;;;;;;0.50;0.50;;;;;;;;;;5018249;28;20184;-78
2023/10/18 08:25:51;;;;;;;0.30;0.30;;;;;;;;;;5016212;28;20204;-80
2023/10/18 08:28:17;;;;;;;0.40;0.40;;;;;;;;;;5016523;28;20176;-79
2023/10/18 08:33:10;;;;;;;0.40;0.40;;;;;;;;;;5011139;28;20247;-78
2023/10/18 08:35:37;;;;;;;0.47;0.47;;;;;;;;;;5010371;28;20237;-78
2023/10/18 08:38:03;;;;;;;0.40;0.40;;;;;;;;;;5014649;28;20176;-79
2023/10/18 08:40:38;;;;;;;0.60;0.60;;;;;;;;;;5013265;28;20177;-79
2023/10/18 08:43:08;;;;;;;0.40;0.40;;;;;;;;;;5014150;28;20711;-78
2023/10/18 08:45:45;;;;;;;0.40;0.40;;;;;;;;;;5016000;28;20200;-78
2023/10/18 08:48:16;;;;;;;0.50;0.50;;;;;;;;;;5013965;28;20524;-78
2023/10/18 08:50:42;;;;;;;0.40;0.40;;;;;;;;;;5007129;28;20188;-78
2023/10/18 08:53:09;;;;;;;0.50;0.50;;;;;;;;;;5006926;28;20231;-78
2023/10/18 08:55:44;;;;;;;0.50;0.50;;;;;;;;;;5014180;28;20196;-80
2023/10/18 08:58:19;;;;;;;0.40;0.40;;;;;;;;;;5014186;28;20272;-78
2023/10/18 09:03:20;;;;;;;0.50;0.50;;;;;;;;;;5014533;28;20299;-78
2023/10/18 09:05:48;;;;;;;0.40;0.40;;;;;;;;;;5013586;28;20254;-79
2023/10/18 09:08:19;;;;;;;0.50;0.50;;;;;;;;;;5015159;28;20177;-79
2023/10/18 09:10:54;;;;;;;0.40;0.40;;;;;;;;;;5029442;28;20181;-77
2023/10/18 09:15:54;;;;;;;0.40;0.40;;;;;;;;;;5019117;28;20257;-77
2023/10/18 09:18:21;;;;;;;0.50;0.50;;;;;;;;;;5019726;28;20173;-77
2023/10/18 09:20:47;;;;;;;0.30;0.30;;;;;;;;;;5019864;28;20162;-78
2023/10/18 09:23:24;;;;;;;0.40;0.40;;;;;;;;;;5008953;28;20185;-80
2023/10/18 09:25:50;;;;;;;0.40;0.40;;;;;;;;;;5000540;28;20208;-80
2023/10/18 09:28:29;;;;;;;0.30;0.30;;;;;;;;;;5000424;28;20455;-82
2023/10/18 09:31:21;;;;;;;0.40;0.40;;;;;;;;;;5019670;28;20188;-79
2023/10/18 09:33:58;;;;;;;0.30;0.30;;;;;;;;;;5019909;28;20212;-81
2023/10/18 09:36:27;;;;;;;0.30;0.30;;;;;;;;;;5030959;28;20188;-79
2023/10/18 09:38:54;;;;;;;0.30;0.30;;;;;;;;;;5036235;28;20169;-80
2023/10/18 09:41:21;;;;;;;0.40;0.40;;;;;;;;;;5037650;28;20199;-77
2023/10/18 09:43:47;;;;;;;0.30;0.30;;;;;;;;;;5027339;28;20264;-79
2023/10/18 09:46:14;;;;;;;0.30;0.30;;;;;;;;;;5016189;28;20692;-78
2023/10/18 09:48:41;;;;;;;0.30;0.30;;;;;;;;;;5018409;28;20181;-78
2023/10/18 09:51:08;;;;;;;0.40;0.40;;;;;;;;;;5018443;28;20173;-80
2023/10/18 09:53:54;;;;;;;0.37;0.37;;;;;;;;;;5018203;28;20252;-78
2023/10/18 09:56:26;;;;;;;0.30;0.30;;;;;;;;;;5017248;28;20588;-79
2023/10/18 09:59:05;;;;;;;0.40;0.40;;;;;;;;;;5018881;28;20203;-79
2023/10/18 10:04:12;;;;;;;0.40;0.40;;;;;;;;;;5016467;28;20180;-82
2023/10/18 10:06:45;;;;;;;0.30;0.30;;;;;;;;;;5016477;28;20192;-81
2023/10/18 10:11:38;;;;;;;0.30;0.30;;;;;;;;;;5016208;28;20246;-80
2023/10/18 10:14:07;;;;;;;0.30;0.30;;;;;;;;;;5017565;28;20189;-81
2023/10/18 10:16:34;;;;;;;0.30;0.30;;;;;;;;;;5017573;28;20208;-79
2023/10/18 10:19:04;;;;;;;0.40;0.40;;;;;;;;;;5018772;28;20648;-80
2023/10/18 10:21:33;;;;;;;0.30;0.30;;;;;;;;;;5017548;28;20187;-81
2023/10/18 10:24:06;;;;;;;0.40;0.40;;;;;;;;;;5018648;28;20937;-81
2023/10/18 10:26:35;;;;;;;0.30;0.30;;;;;;;;;;5018420;28;20549;-81
2023/10/18 10:31:52;;;;;;;0.50;0.50;;;;;;;;;;5018850;28;20183;-80
2023/10/18 10:34:24;;;;;;;0.43;0.43;;;;;;;;;;5018899;28;20219;-81
2023/10/18 10:36:50;;;;;;;0.40;0.40;;;;;;;;;;5024803;28;20184;-80
2023/10/18 10:39:23;;;;;;;0.40;0.40;;;;;;;;;;5025070;28;20184;-79
2023/10/18 10:41:50;;;;;;;0.30;0.30;;;;;;;;;;5021575;28;20173;-81
2023/10/18 10:44:23;;;;;;;0.30;0.30;;;;;;;;;;5017764;28;20275;-80
2023/10/18 10:46:50;;;;;;;0.50;0.50;;;;;;;;;;5018652;28;20188;-79
2023/10/18 10:49:41;;;;;;;0.30;0.30;;;;;;;;;;5018510;28;20180;-81
2023/10/18 10:52:07;;;;;;;0.40;0.40;;;;;;;;;;5017745;28;20208;-81
2023/10/18 10:54:37;;;;;;;0.40;0.40;;;;;;;;;;5016792;28;20164;-81
2023/10/18 10:57:08;;;;;;;0.40;0.40;;;;;;;;;;5014002;28;20169;-82
2023/10/18 10:59:41;;;;;;;0.50;0.50;;;;;;;;;;5012708;28;20263;-81
2023/10/18 11:02:07;;;;;;;0.40;0.40;;;;;;;;;;5012120;28;20245;-81
2023/10/18 11:04:46;;;;;;;0.40;0.40;;;;;;;;;;5017878;28;20181;-81
2023/10/18 11:07:13;;;;;;;0.40;0.40;;;;;;;;;;5017550;28;20692;-84
2023/10/18 11:09:42;;;;;;;0.30;0.30;;;;;;;;;;5012594;28;20189;-82
2023/10/18 11:12:17;;;;;;;0.30;0.30;;;;;;;;;;5007560;28;20205;-85
2023/10/18 11:14:53;;;;;;;0.30;0.30;;;;;;;;;;5000664;28;20187;-83
2023/10/18 11:17:23;;;;;;;0.30;0.30;;;;;;;;;;4999824;28;20177;-82
2023/10/18 11:19:53;;;;;;;0.50;0.50;;;;;;;;;;4998347;28;20229;-82
2023/10/18 11:22:29;;;;;;;0.40;0.40;;;;;;;;;;4999299;28;20181;-80
2023/10/18 11:24:56;;;;;;;0.40;0.40;;;;;;;;;;4998427;28;20189;-81
2023/10/18 11:27:37;;;;;;;0.40;0.40;;;;;;;;;;4999048;28;20255;-81
2023/10/18 11:30:25;;;;;;;0.40;0.40;;;;;;;;;;4999184;28;20173;-82
2023/10/18 11:32:50;;;;;;;0.40;0.40;;;;;;;;;;4999142;28;20311;-80
2023/10/18 11:35:37;;;;;;;0.30;0.30;;;;;;;;;;5010504;28;20197;-78
2023/10/18 11:38:03;;;;;;;0.50;0.50;;;;;;;;;;5013663;28;20185;-78
2023/10/18 11:40:29;;;;;;;0.50;0.50;;;;;;;;;;5013271;28;20189;-79
2023/10/18 11:43:06;;;;;;;0.57;0.57;;;;;;;;;;5015945;28;20236;-81
2023/10/18 11:45:39;;;;;;;0.40;0.40;;;;;;;;;;5014726;28;20211;-78
2023/10/18 11:48:06;;;;;;;0.57;0.57;;;;;;;;;;5014849;28;20181;-81
2023/10/18 11:51:02;;;;;;;0.40;0.40;;;;;;;;;;5011815;28;20192;-80
2023/10/18 11:53:28;;;;;;;0.50;0.50;;;;;;;;;;5001774;28;20212;-81
2023/10/18 11:55:58;;;;;;;0.40;0.40;;;;;;;;;;5010856;28;20733;-79
2023/10/18 11:58:28;;;;;;;0.40;0.40;;;;;;;;;;5013817;28;20250;-81
2023/10/18 12:01:01;;;;;;;0.40;0.40;;;;;;;;;;5002414;28;20189;-79
2023/10/18 12:03:27;;;;;;;0.60;0.60;;;;;;;;;;5001782;28;20181;-79
2023/10/18 12:05:57;;;;;;;0.50;0.50;;;;;;;;;;4999720;28;20304;-80
2023/10/18 12:08:23;;;;;;;0.57;0.57;;;;;;;;;;5000851;28;20196;-80
2023/10/18 12:10:52;;;;;;;0.50;0.50;;;;;;;;;;5002933;28;20240;-80
2023/10/18 12:13:20;;;;;;;0.40;0.40;;;;;;;;;;5002030;28;20220;-81
2023/10/18 12:15:47;;;;;;;0.50;0.50;;;;;;;;;;5001009;28;20620;-81
2023/10/18 12:18:14;;;;;;;0.50;0.50;;;;;;;;;;5001869;28;20252;-81
2023/10/18 12:20:43;;;;;;;0.50;0.50;;;;;;;;;;5002816;28;20209;-81
2023/10/18 12:23:12;;;;;;;0.50;0.50;;;;;;;;;;5004352;28;20189;-80
2023/10/18 12:25:38;;;;;;;0.40;0.40;;;;;;;;;;5003112;28;20846;-81
2023/10/18 12:28:12;;;;;;;0.40;0.40;;;;;;;;;;5003744;28;20346;-82
2023/10/18 12:30:41;;;;;;;0.47;0.47;;;;;;;;;;5003452;28;20241;-82
2023/10/18 12:33:07;;;;;;;0.40;0.40;;;;;;;;;;5005293;28;20197;-81
2023/10/18 12:35:37;;;;;;;0.40;0.40;;;;;;;;;;4998193;28;20225;-79
2023/10/18 12:38:14;;;;;;;0.40;0.40;;;;;;;;;;4999130;28;20180;-82
2023/10/18 12:40:51;;;;;;;0.40;0.40;;;;;;;;;;5000438;28;20180;-80
2023/10/18 12:43:20;;;;;;;0.43;0.43;;;;;;;;;;5000650;28;20173;-79
2023/10/18 12:45:50;;;;;;;0.50;0.50;;;;;;;;;;5001666;28;20197;-80
2023/10/18 12:48:22;;;;;;;0.40;0.40;;;;;;;;;;5001888;28;20178;-81
2023/10/18 12:50:52;;;;;;;0.50;0.50;;;;;;;;;;5001656;28;20204;-81
2023/10/18 12:58:47;;;;;;;0.30;0.30;;;;;;;;;;5001831;28;20235;-82
2023/10/18 13:01:14;;;;;;;0.50;0.50;;;;;;;;;;5001049;28;20161;-80
2023/10/18 13:03:56;;;;;;;0.50;0.50;;;;;;;;;;5001411;28;20276;-80
2023/10/18 13:06:30;;;;;;;0.40;0.40;;;;;;;;;;5000849;28;20188;-80
2023/10/18 13:08:56;;;;;;;0.40;0.40;;;;;;;;;;5002603;28;20659;-82
2023/10/18 13:14:11;;;;;;;0.50;0.50;;;;;;;;;;5018949;28;20193;-79
2023/10/18 13:16:37;;;;;;;0.60;0.60;;;;;;;;;;5002027;28;20209;-79
2023/10/18 13:19:06;;;;;;;0.50;0.50;;;;;;;;;;5001665;28;20177;-79
2023/10/18 13:21:32;;;;;;;0.50;0.50;;;;;;;;;;5002153;28;20173;-81
2023/10/18 13:24:16;;;;;;;0.50;0.50;;;;;;;;;;5001228;28;20207;-81
2023/10/18 13:26:43;;;;;;;0.53;0.53;;;;;;;;;;5000740;28;20205;-82
2023/10/18 13:29:29;;;;;;;0.50;0.50;;;;;;;;;;5001577;28;20236;-81
2023/10/18 13:31:59;;;;;;;0.50;0.50;;;;;;;;;;5001250;28;20180;-80
2023/10/18 13:34:44;;;;;;;0.50;0.50;;;;;;;;;;5000336;28;20800;-80
2023/10/18 13:37:12;;;;;;;0.50;0.50;;;;;;;;;;5000172;28;20180;-81
2023/10/18 13:39:47;;;;;;;0.60;0.60;;;;;;;;;;5000634;28;20173;-80
2023/10/18 13:42:14;;;;;;;0.50;0.50;;;;;;;;;;4999493;28;20184;-80
2023/10/18 13:44:43;;;;;;;0.60;0.60;;;;;;;;;;4998856;28;20716;-81
2023/10/18 13:47:11;;;;;;;0.40;0.40;;;;;;;;;;4999146;28;20241;-80
2023/10/18 13:49:37;;;;;;;0.50;0.50;;;;;;;;;;5000797;28;20227;-80
2023/10/18 13:52:04;;;;;;;0.60;0.60;;;;;;;;;;4999924;28;20173;-80
2023/10/18 13:54:30;;;;;;;0.40;0.40;;;;;;;;;;4999477;28;20201;-81
2023/10/18 13:56:56;;;;;;;0.50;0.50;;;;;;;;;;4999504;28;20199;-80
2023/10/18 13:59:22;;;;;;;0.50;0.50;;;;;;;;;;4999456;28;20173;-80
2023/10/18 14:01:49;;;;;;;0.60;0.60;;;;;;;;;;5010266;28;20176;-80
2023/10/18 14:04:19;;;;;;;0.50;0.50;;;;;;;;;;5020059;28;20173;-82
2023/10/18 14:06:45;;;;;;;0.50;0.50;;;;;;;;;;5017883;28;20200;-77
2023/10/18 14:09:11;;;;;;;0.40;0.40;;;;;;;;;;5020987;28;20214;-80
2023/10/18 14:11:39;;;;;;;0.50;0.50;;;;;;;;;;5021531;28;20173;-80
2023/10/18 14:14:08;;;;;;;0.60;0.60;;;;;;;;;;5020272;28;20307;-79
2023/10/18 14:16:34;;;;;;;0.57;0.57;;;;;;;;;;5020127;28;20200;-78
2023/10/18 14:19:01;;;;;;;0.53;0.53;;;;;;;;;;5024104;28;20634;-80
2023/10/18 14:21:29;;;;;;;0.53;0.53;;;;;;;;;;5019531;28;20204;-78
2023/10/18 14:23:59;;;;;;;0.60;0.60;;;;;;;;;;5017545;28;20180;-78
2023/10/18 14:26:26;;;;;;;0.50;0.50;;;;;;;;;;5016791;28;20204;-79
2023/10/18 14:28:52;;;;;;;0.50;0.50;;;;;;;;;;5015980;28;20552;-80
2023/10/18 14:31:18;;;;;;;0.50;0.50;;;;;;;;;;5009068;28;20192;-77
2023/10/18 14:33:45;;;;;;;0.40;0.40;;;;;;;;;;5009202;28;20239;-79
2023/10/18 14:36:15;;;;;;;0.50;0.50;;;;;;;;;;5007372;28;20196;-78
2023/10/18 14:38:41;;;;;;;0.53;0.53;;;;;;;;;;5008615;28;20180;-78
2023/10/18 14:41:13;;;;;;;0.50;0.50;;;;;;;;;;5005746;28;20177;-77
2023/10/18 14:43:39;;;;;;;0.47;0.47;;;;;;;;;;5007005;28;20173;-78
2023/10/18 14:46:05;;;;;;;0.50;0.50;;;;;;;;;;5009039;28;20254;-79
2023/10/18 14:48:32;;;;;;;0.50;0.50;;;;;;;;;;5011524;28;20201;-78
2023/10/18 14:50:58;;;;;;;0.50;0.50;;;;;;;;;;5009754;28;20183;-78
2023/10/18 14:53:24;;;;;;;0.50;0.50;;;;;;;;;;5005704;28;20216;-79
2023/10/18 14:55:50;;;;;;;0.50;0.50;;;;;;;;;;5005660;28;20212;-78
2023/10/18 14:58:16;;;;;;;0.43;0.43;;;;;;;;;;5012619;28;20719;-77
2023/10/18 15:00:45;;;;;;;0.43;0.43;;;;;;;;;;5015739;28;20191;-78
2023/10/18 15:03:12;;;;;;;0.50;0.50;;;;;;;;;;5016823;28;20678;-80
2023/10/18 15:05:40;;;;;;;0.70;0.70;;;;;;;;;;5015193;28;20280;-77
2023/10/18 15:08:07;;;;;;;0.40;0.40;;;;;;;;;;5017302;28;20184;-80
2023/10/18 15:10:33;;;;;;;0.60;0.60;;;;;;;;;;5020661;28;20184;-79
2023/10/18 15:13:02;;;;;;;0.50;0.50;;;;;;;;;;5020698;28;20220;-80
2023/10/18 15:15:32;;;;;;;0.43;0.43;;;;;;;;;;5021030;28;20218;-79
2023/10/18 15:17:58;;;;;;;0.40;0.40;;;;;;;;;;5021696;28;20206;-79
2023/10/18 15:20:27;;;;;;;0.60;0.60;;;;;;;;;;5021946;28;20668;-81
2023/10/18 15:22:54;;;;;;;0.60;0.60;;;;;;;;;;5021774;28;20271;-80
2023/10/18 15:25:21;;;;;;;0.50;0.50;;;;;;;;;;5019783;28;20684;-80
2023/10/18 15:27:50;;;;;;;0.50;0.50;;;;;;;;;;5022990;28;20191;-80
2023/10/18 15:30:17;;;;;;;0.50;0.50;;;;;;;;;;5025117;28;20192;-79
2023/10/18 15:32:45;;;;;;;0.60;0.60;;;;;;;;;;5017860;28;20212;-79
2023/10/18 15:35:12;;;;;;;0.60;0.60;;;;;;;;;;5006102;28;20307;-79
2023/10/18 15:37:38;;;;;;;0.60;0.60;;;;;;;;;;5017325;28;20184;-78
2023/10/18 15:40:04;;;;;;;0.50;0.50;;;;;;;;;;5019006;28;20582;-80
2023/10/18 15:42:30;;;;;;;0.60;0.60;;;;;;;;;;5018432;28;20683;-79
2023/10/18 15:44:56;;;;;;;0.60;0.60;;;;;;;;;;5018126;28;20291;-82
2023/10/18 15:47:25;;;;;;;0.60;0.60;;;;;;;;;;5005729;28;20595;-81
2023/10/18 15:49:51;;;;;;;0.70;0.70;;;;;;;;;;5019283;28;20180;-83